createdAt,value
2023-04-12T00:01:22.008Z,48.20
2023-04-12T00:03:51.007Z,48.76
2023-04-12T00:06:18.591Z,48.27
2023-04-12T00:08:46.998Z,48.18
2023-04-12T00:11:14.360Z,48.37
2023-04-12T00:13:42.071Z,48.84
2023-04-12T00:16:10.465Z,49.09
2023-04-12T00:18:38.512Z,48.81
2023-04-12T00:21:06.436Z,48.65
2023-04-12T00:23:33.875Z,49.03
2023-04-12T00:26:01.265Z,48.87
2023-04-12T00:28:28.511Z,49.63
2023-04-12T00:30:56.386Z,49.12
2023-04-12T00:33:24.177Z,49.42
2023-04-12T00:35:51.636Z,49.21
2023-04-12T00:38:19.069Z,48.95
2023-04-12T00:40:46.581Z,48.79
2023-04-12T00:43:18.937Z,49.25
2023-04-12T00:45:47.394Z,49.37
2023-04-12T00:48:15.808Z,49.38
2023-04-12T00:50:47.704Z,49.40
2023-04-12T00:53:16.041Z,49.91
2023-04-12T00:55:44.368Z,50.17
2023-04-12T00:58:12.013Z,49.88
2023-04-12T01:00:40.298Z,50.40
2023-04-12T01:03:08.819Z,50.43
2023-04-12T01:05:43.703Z,50.38
2023-04-12T01:08:12.364Z,50.41
2023-04-12T01:10:52.289Z,50.38
2023-04-12T01:13:32.539Z,50.69
2023-04-12T01:16:09.390Z,50.20
2023-04-12T01:18:42.560Z,50.52
2023-04-12T01:21:16.857Z,50.30
2023-04-12T01:24:13.788Z,50.67
2023-04-12T01:26:45.640Z,51.44
2023-04-12T01:29:17.545Z,51.28
2023-04-12T01:31:53.657Z,51.42
2023-04-12T01:34:23.484Z,51.95
2023-04-12T01:36:52.390Z,51.92
2023-04-12T01:39:20.149Z,52.47
2023-04-12T01:41:50.588Z,52.58
2023-04-12T01:44:18.805Z,52.24
2023-04-12T01:46:47.614Z,52.03
2023-04-12T01:49:18.813Z,52.03
2023-04-12T01:51:58.543Z,51.92
2023-04-12T01:54:30.851Z,51.82
2023-04-12T01:57:00.451Z,52.08
2023-04-12T01:59:44.570Z,52.28
2023-04-12T02:02:13.567Z,52.63
2023-04-12T02:04:43.409Z,51.97
2023-04-12T02:07:12.048Z,51.75
2023-04-12T02:09:39.759Z,51.74
2023-04-12T02:12:07.733Z,51.90
2023-04-12T02:14:37.138Z,51.99
2023-04-12T02:17:05.777Z,51.69
2023-04-12T02:19:34.648Z,52.08
2023-04-12T02:22:02.553Z,52.01
2023-04-12T02:24:30.134Z,51.86
2023-04-12T02:27:01.540Z,52.10
2023-04-12T02:29:29.888Z,52.08
2023-04-12T02:31:57.695Z,52.22
2023-04-12T02:34:27.390Z,52.24
2023-04-12T02:37:02.515Z,52.27
2023-04-12T02:39:32.303Z,51.73
2023-04-12T02:42:01.333Z,51.76
2023-04-12T02:44:32.412Z,51.54
2023-04-12T02:47:10.954Z,51.87
2023-04-12T02:49:40.399Z,51.26
2023-04-12T02:52:09.417Z,51.42
2023-04-12T02:54:44.612Z,51.16
2023-04-12T02:57:16.915Z,50.93
2023-04-12T02:59:46.876Z,51.49
2023-04-12T03:02:23.220Z,51.77
2023-04-12T03:04:54.846Z,51.83
2023-04-12T03:07:30.975Z,51.71
2023-04-12T03:09:59.447Z,51.76
2023-04-12T03:12:26.820Z,51.69
2023-04-12T03:15:30.089Z,51.25
2023-04-12T03:17:58.620Z,51.63
2023-04-12T03:20:30.427Z,51.18
2023-04-12T03:23:07.573Z,50.83
2023-04-12T03:25:38.293Z,51.26
2023-04-12T03:28:26.496Z,51.37
2023-04-12T03:30:55.272Z,51.35
2023-04-12T03:33:25.709Z,51.61
2023-04-12T03:35:58.113Z,51.35
2023-04-12T03:38:26.907Z,51.55
2023-04-12T03:40:55.172Z,51.38
2023-04-12T03:43:35.794Z,51.90
2023-04-12T03:46:07.141Z,51.74
2023-04-12T03:48:34.948Z,51.50
2023-04-12T03:51:07.875Z,51.92
2023-04-12T03:53:39.358Z,52.04
2023-04-12T03:56:09.232Z,52.31
2023-04-12T03:58:37.224Z,51.77
2023-04-12T04:01:07.937Z,52.23
2023-04-12T04:03:37.379Z,52.34
2023-04-12T04:06:17.584Z,52.32
2023-04-12T04:08:46.081Z,52.32
2023-04-12T04:11:14.999Z,52.41
2023-04-12T04:13:46.781Z,52.24
2023-04-12T04:16:19.693Z,52.45
2023-04-12T04:18:47.997Z,52.67
2023-04-12T04:21:19.676Z,52.55
2023-04-12T04:23:48.100Z,53.72
2023-04-12T04:26:17.120Z,54.10
2023-04-12T04:29:05.803Z,54.55
2023-04-12T04:31:40.823Z,54.94
2023-04-12T04:34:11.668Z,55.50
2023-04-12T04:36:44.472Z,55.21
2023-04-12T04:39:15.870Z,55.54
2023-04-12T04:41:46.736Z,54.97
2023-04-12T04:44:22.391Z,54.63
2023-04-12T04:46:54.863Z,54.68
2023-04-12T04:49:22.949Z,54.56
2023-04-12T04:51:50.776Z,54.12
2023-04-12T04:54:19.061Z,53.90
2023-04-12T04:56:46.476Z,53.59
2023-04-12T04:59:17.893Z,54.25
2023-04-12T05:01:45.732Z,53.80
2023-04-12T05:04:16.055Z,53.88
2023-04-12T05:06:43.661Z,53.92
2023-04-12T05:09:12.997Z,54.30
2023-04-12T05:11:48.018Z,53.80
2023-04-12T05:14:15.391Z,53.26
2023-04-12T05:16:43.134Z,53.44
2023-04-12T05:19:11.318Z,53.26
2023-04-12T05:21:39.098Z,53.81
2023-04-12T05:24:06.578Z,53.33
2023-04-12T05:26:36.439Z,54.53
2023-04-12T05:29:08.426Z,54.42
2023-04-12T05:31:36.578Z,54.77
2023-04-12T05:34:08.468Z,53.13
2023-04-12T05:36:41.741Z,53.27
2023-04-12T05:39:09.879Z,52.83
2023-04-12T05:41:37.348Z,52.71
2023-04-12T05:44:04.709Z,51.84
2023-04-12T05:46:33.223Z,51.83
2023-04-12T05:49:03.617Z,51.62
2023-04-12T05:51:40.434Z,51.90
2023-04-12T05:54:13.745Z,51.84
2023-04-12T05:56:41.421Z,52.10
2023-04-12T05:59:10.982Z,52.40
2023-04-12T06:01:42.740Z,52.64
2023-04-12T06:04:11.026Z,51.85
2023-04-12T06:06:39.449Z,51.44
2023-04-12T06:09:07.473Z,50.73
2023-04-12T06:11:39.423Z,50.05
2023-04-12T06:14:09.051Z,50.61
2023-04-12T06:16:37.758Z,49.95
2023-04-12T06:19:06.444Z,49.07
2023-04-12T06:21:33.860Z,49.22
2023-04-12T06:24:01.702Z,49.09
2023-04-12T06:26:38.799Z,50.11
2023-04-12T06:29:08.102Z,49.98
2023-04-12T06:31:36.280Z,50.08
2023-04-12T06:34:04.100Z,49.99
2023-04-12T06:36:33.194Z,49.11
2023-04-12T06:39:01.037Z,49.18
2023-04-12T06:41:28.877Z,48.52
2023-04-12T06:44:01.593Z,49.18
2023-04-12T06:46:30.962Z,49.22
2023-04-12T06:48:58.458Z,48.58
2023-04-12T06:51:26.254Z,48.83
2023-04-12T06:53:54.251Z,48.68
2023-04-12T06:56:21.623Z,48.28
2023-04-12T06:58:49.417Z,47.94
2023-04-12T07:01:17.888Z,48.11
2023-04-12T07:03:45.595Z,48.32
2023-04-12T07:06:24.428Z,48.68
2023-04-12T07:08:53.767Z,49.03
2023-04-12T07:11:25.199Z,49.38
2023-04-12T07:13:52.975Z,49.14
2023-04-12T07:16:20.514Z,48.63
2023-04-12T07:18:48.438Z,48.31
2023-04-12T07:21:17.759Z,48.82
2023-04-12T07:23:46.635Z,49.16
2023-04-12T07:26:14.315Z,49.59
2023-04-12T07:28:41.671Z,48.78
2023-04-12T07:31:09.379Z,49.16
2023-04-12T07:33:39.326Z,49.33
2023-04-12T07:36:08.209Z,48.50
2023-04-12T07:38:35.874Z,48.50
2023-04-12T07:41:03.518Z,48.54
2023-04-12T07:43:31.261Z,49.30
2023-04-12T07:45:59.026Z,48.78
2023-04-12T07:48:27.249Z,48.74
2023-04-12T07:50:54.528Z,48.91
2023-04-12T07:53:23.725Z,47.42
2023-04-12T07:55:51.201Z,47.22
2023-04-12T07:58:19.406Z,47.26
2023-04-12T08:00:47.354Z,47.12
2023-04-12T08:03:16.405Z,46.24
2023-04-12T08:05:44.500Z,45.21
2023-04-12T08:08:12.850Z,44.96
2023-04-12T08:10:41.369Z,44.80
2023-04-12T08:13:08.837Z,45.11
2023-04-12T08:15:37.005Z,44.68
2023-04-12T08:18:04.790Z,43.32
2023-04-12T08:20:32.879Z,43.97
2023-04-12T08:23:01.903Z,43.46
2023-04-12T08:25:29.278Z,43.69
2023-04-12T08:27:56.858Z,43.96
2023-04-12T08:30:27.029Z,43.73
2023-04-12T08:32:54.551Z,43.68
2023-04-12T08:35:23.285Z,43.36
2023-04-12T08:37:50.566Z,42.79
2023-04-12T08:40:18.756Z,43.04
2023-04-12T08:42:46.988Z,42.77
2023-04-12T08:45:14.954Z,42.67
2023-04-12T08:47:44.354Z,42.66
2023-04-12T08:50:14.199Z,43.03
2023-04-12T08:52:43.260Z,42.10
2023-04-12T08:55:13.056Z,41.41
2023-04-12T08:57:41.448Z,40.36
2023-04-12T09:00:10.984Z,40.60
2023-04-12T09:02:38.924Z,40.24
2023-04-12T09:05:07.052Z,40.26
2023-04-12T09:07:34.998Z,39.61
2023-04-12T09:10:02.411Z,39.75
2023-04-12T09:12:31.154Z,40.28
2023-04-12T09:15:15.550Z,39.44
2023-04-12T09:17:44.175Z,38.67
2023-04-12T09:20:17.651Z,38.93
2023-04-12T09:22:46.680Z,38.81
2023-04-12T09:25:15.743Z,38.01
2023-04-12T09:27:48.057Z,36.96
2023-04-12T09:30:16.166Z,36.42
2023-04-12T09:32:44.876Z,36.22
2023-04-12T09:35:12.542Z,35.83
2023-04-12T09:37:41.113Z,34.75
2023-04-12T09:40:09.550Z,34.33
2023-04-12T09:42:49.482Z,34.07
2023-04-12T09:45:25.448Z,33.47
2023-04-12T09:47:53.668Z,33.84
2023-04-12T09:50:23.001Z,33.86
2023-04-12T09:52:51.224Z,34.38
2023-04-12T09:55:20.764Z,34.53
2023-04-12T09:57:50.951Z,34.56
2023-04-12T10:00:19.066Z,34.98
2023-04-12T10:02:48.260Z,34.90
2023-04-12T10:05:18.192Z,34.63
2023-04-12T10:07:47.269Z,35.46
2023-04-12T10:10:16.862Z,34.91
2023-04-12T10:12:45.830Z,34.80
2023-04-12T10:15:15.820Z,33.56
2023-04-12T10:17:47.122Z,34.48
2023-04-12T10:20:16.033Z,33.11
2023-04-12T10:22:44.705Z,33.23
2023-04-12T10:25:15.678Z,33.47
2023-04-12T10:27:44.276Z,32.52
2023-04-12T10:30:22.585Z,32.71
2023-04-12T10:33:20.636Z,32.94
2023-04-12T10:36:03.978Z,32.53
2023-04-12T10:38:44.614Z,32.51
2023-04-12T10:41:16.244Z,32.76
2023-04-12T10:43:50.895Z,33.37
2023-04-12T10:46:38.351Z,33.11
2023-04-12T10:49:12.542Z,33.31
2023-04-12T10:51:41.579Z,33.88
2023-04-12T10:54:11.659Z,34.37
2023-04-12T10:56:40.594Z,34.52
2023-04-12T10:59:11.771Z,35.67
2023-04-12T11:02:02.357Z,35.36
2023-04-12T11:04:30.578Z,35.28
2023-04-12T11:07:11.375Z,35.24
2023-04-12T11:10:02.349Z,35.54
2023-04-12T11:12:34.264Z,35.95
2023-04-12T11:15:04.328Z,36.10
2023-04-12T11:17:53.849Z,36.36
2023-04-12T11:20:21.727Z,35.48
2023-04-12T11:22:51.319Z,36.19
2023-04-12T11:25:19.217Z,36.57
2023-04-12T11:27:50.361Z,36.00
2023-04-12T11:30:19.840Z,35.73
2023-04-12T11:32:47.851Z,34.96
2023-04-12T11:35:16.972Z,34.02
2023-04-12T11:37:44.580Z,33.39
2023-04-12T11:40:12.510Z,34.00
2023-04-12T11:42:40.803Z,32.72
2023-04-12T11:45:15.921Z,33.37
2023-04-12T11:47:46.565Z,31.95
2023-04-12T11:50:27.468Z,32.31
2023-04-12T11:52:55.403Z,31.68
2023-04-12T11:55:22.751Z,32.65
2023-04-12T11:57:54.485Z,33.68
2023-04-12T12:00:24.509Z,33.18
2023-04-12T12:03:06.794Z,34.16
2023-04-12T12:05:38.484Z,33.93
2023-04-12T12:08:07.900Z,34.72
2023-04-12T12:10:44.267Z,33.98
2023-04-12T12:13:23.549Z,32.45
2023-04-12T12:15:54.523Z,33.48
2023-04-12T12:18:25.601Z,31.91
2023-04-12T12:20:53.464Z,30.85
2023-04-12T12:23:31.221Z,30.78
2023-04-12T12:26:17.845Z,29.85
2023-04-12T12:28:49.589Z,30.20
2023-04-12T12:31:19.982Z,30.26
2023-04-12T12:33:47.771Z,29.84
2023-04-12T12:36:20.957Z,28.32
2023-04-12T12:38:53.088Z,29.27
2023-04-12T12:41:21.601Z,29.94
2023-04-12T12:43:50.888Z,30.17
2023-04-12T12:46:19.055Z,31.88
2023-04-12T12:48:47.885Z,31.05
2023-04-12T12:51:17.870Z,31.83
2023-04-12T12:53:45.751Z,30.51
2023-04-12T12:56:14.156Z,30.95
2023-04-12T12:58:42.293Z,31.38
2023-04-12T13:01:10.059Z,30.17
2023-04-12T13:03:38.057Z,29.50
2023-04-12T13:06:06.836Z,27.12
2023-04-12T13:08:35.608Z,25.99
2023-04-12T13:11:04.008Z,26.30
2023-04-12T13:13:31.451Z,27.79
2023-04-12T13:15:58.906Z,27.07
2023-04-12T13:18:26.993Z,26.34
2023-04-12T13:20:54.993Z,29.08
2023-04-12T13:23:22.485Z,31.45
2023-04-12T13:25:49.759Z,31.71
2023-04-12T13:28:17.552Z,32.43
2023-04-12T13:30:48.645Z,32.33
2023-04-12T13:33:20.094Z,32.90
2023-04-12T13:35:49.251Z,33.26
2023-04-12T13:38:16.630Z,33.51
2023-04-12T13:40:43.898Z,34.20
2023-04-12T13:43:11.617Z,34.62
2023-04-12T13:45:39.476Z,35.20
2023-04-12T13:48:07.247Z,35.28
2023-04-12T13:50:35.467Z,35.83
2023-04-12T13:53:02.835Z,36.07
2023-04-12T13:55:31.182Z,36.74
2023-04-12T13:57:58.854Z,37.00
2023-04-12T14:00:27.358Z,37.46
2023-04-12T14:02:55.219Z,37.34
2023-04-12T14:05:22.775Z,37.70
2023-04-12T14:07:52.743Z,37.38
2023-04-12T14:10:20.699Z,37.55
2023-04-12T14:12:48.464Z,37.28
2023-04-12T14:15:16.629Z,37.73
2023-04-12T14:17:44.191Z,37.67
2023-04-12T14:20:12.676Z,37.69
2023-04-12T14:22:40.353Z,37.75
2023-04-12T14:25:09.325Z,38.58
2023-04-12T14:27:37.675Z,38.18
2023-04-12T14:30:06.430Z,37.90
2023-04-12T14:32:34.883Z,38.05
2023-04-12T14:35:04.980Z,37.48
2023-04-12T14:37:33.173Z,37.73
2023-04-12T14:40:01.182Z,38.11
2023-04-12T14:42:28.498Z,38.02
2023-04-12T14:44:56.322Z,38.58
2023-04-12T14:47:23.872Z,38.11
2023-04-12T14:49:51.895Z,37.80
2023-04-12T14:52:19.844Z,37.94
2023-04-12T14:54:47.814Z,37.78
2023-04-12T14:57:15.560Z,37.92
2023-04-12T14:59:42.989Z,38.04
2023-04-12T15:02:10.904Z,37.78
2023-04-12T15:04:38.412Z,37.70
2023-04-12T15:07:06.627Z,38.05
2023-04-12T15:09:35.357Z,38.15
2023-04-12T15:12:03.209Z,37.65
2023-04-12T15:14:31.475Z,37.29
2023-04-12T15:16:59.366Z,37.64
2023-04-12T15:19:27.302Z,38.10
2023-04-12T15:21:58.653Z,38.00
2023-04-12T15:24:27.045Z,38.41
2023-04-12T15:26:54.807Z,38.65
2023-04-12T15:29:24.573Z,39.09
2023-04-12T15:31:52.480Z,38.97
2023-04-12T15:34:20.119Z,39.46
2023-04-12T15:36:47.963Z,39.28
2023-04-12T15:39:15.753Z,38.84
2023-04-12T15:41:43.866Z,38.85
2023-04-12T15:44:14.593Z,38.30
2023-04-12T15:46:42.483Z,38.47
2023-04-12T15:49:10.364Z,38.64
2023-04-12T15:51:38.467Z,38.74
2023-04-12T15:54:06.664Z,39.07
2023-04-12T15:56:35.226Z,39.27
2023-04-12T15:59:03.185Z,39.75
2023-04-12T16:01:31.046Z,39.71
2023-04-12T16:03:59.244Z,40.13
2023-04-12T16:06:28.296Z,40.30
2023-04-12T16:08:57.590Z,40.08
2023-04-12T16:11:25.326Z,40.13
2023-04-12T16:13:53.966Z,40.20
2023-04-12T16:16:23.240Z,40.59
2023-04-12T16:18:53.089Z,40.45
2023-04-12T16:21:21.295Z,40.67
2023-04-12T16:23:50.342Z,41.07
2023-04-12T16:26:22.437Z,41.38
2023-04-12T16:28:53.720Z,41.46
2023-04-12T16:31:22.845Z,41.94
2023-04-12T16:33:51.864Z,42.21
2023-04-12T16:36:23.500Z,42.29
2023-04-12T16:38:55.416Z,41.36
2023-04-12T16:41:23.569Z,41.87
2023-04-12T16:43:53.935Z,42.06
2023-04-12T16:46:28.714Z,41.59
2023-04-12T16:48:58.471Z,41.96
2023-04-12T16:51:27.207Z,41.61
2023-04-12T16:54:04.728Z,41.53
2023-04-12T16:56:33.204Z,42.00
2023-04-12T16:59:01.265Z,42.17
2023-04-12T17:01:28.729Z,42.12
2023-04-12T17:03:56.900Z,42.32
2023-04-12T17:06:24.800Z,42.52
2023-04-12T17:08:52.966Z,42.67
2023-04-12T17:11:21.079Z,42.48
2023-04-12T17:13:50.484Z,42.66
2023-04-12T17:16:18.660Z,42.74
2023-04-12T17:18:46.846Z,42.51
2023-04-12T17:21:18.039Z,42.58
2023-04-12T17:23:48.486Z,42.65
2023-04-12T17:26:16.642Z,42.96
2023-04-12T17:28:44.021Z,42.86
2023-04-12T17:31:11.860Z,43.15
2023-04-12T17:33:40.413Z,42.62
2023-04-12T17:36:11.353Z,42.72
2023-04-12T17:38:39.420Z,42.87
2023-04-12T17:41:09.344Z,42.88
2023-04-12T17:43:36.885Z,42.98
2023-04-12T17:46:05.924Z,43.17
2023-04-12T17:48:33.910Z,42.86
2023-04-12T17:51:03.169Z,42.79
2023-04-12T17:53:31.388Z,42.91
2023-04-12T17:55:59.047Z,42.74
2023-04-12T17:58:27.841Z,43.25
2023-04-12T18:00:55.394Z,43.02
2023-04-12T18:03:23.563Z,42.83
2023-04-12T18:05:58.896Z,42.81
2023-04-12T18:08:26.697Z,42.69
2023-04-12T18:10:55.163Z,43.24
2023-04-12T18:13:23.454Z,43.50
2023-04-12T18:15:53.927Z,43.26
2023-04-12T18:18:23.280Z,43.52
2023-04-12T18:20:51.086Z,43.49
2023-04-12T18:23:18.699Z,43.63
2023-04-12T18:25:46.929Z,43.89
2023-04-12T18:28:18.505Z,44.17
2023-04-12T18:30:46.593Z,43.98
2023-04-12T18:33:14.465Z,43.79
2023-04-12T18:35:42.158Z,44.05
2023-04-12T18:38:10.050Z,44.01
2023-04-12T18:40:38.417Z,43.92
2023-04-12T18:43:05.989Z,44.36
2023-04-12T18:45:33.416Z,44.50
2023-04-12T18:48:01.200Z,44.35
2023-04-12T18:50:29.176Z,44.41
2023-04-12T18:52:57.378Z,44.07
2023-04-12T18:55:26.043Z,44.05
2023-04-12T18:57:53.807Z,44.36
2023-04-12T19:00:21.554Z,44.70
2023-04-12T19:02:49.792Z,44.47
2023-04-12T19:05:18.570Z,44.46
2023-04-12T19:07:47.145Z,44.88
2023-04-12T19:10:15.735Z,45.04
2023-04-12T19:12:43.696Z,44.93
2023-04-12T19:15:11.179Z,44.66
2023-04-12T19:17:39.520Z,44.57
2023-04-12T19:20:08.296Z,44.55
2023-04-12T19:22:36.506Z,44.54
2023-04-12T19:25:03.942Z,45.13
2023-04-12T19:27:31.550Z,45.24
2023-04-12T19:29:59.260Z,45.59
2023-04-12T19:32:28.011Z,46.29
2023-04-12T19:34:56.323Z,46.94
2023-04-12T19:37:24.376Z,47.38
2023-04-12T19:39:51.689Z,48.13
2023-04-12T19:42:20.192Z,48.17
2023-04-12T19:44:47.626Z,48.34
2023-04-12T19:47:15.925Z,48.37
2023-04-12T19:49:44.043Z,48.97
2023-04-12T19:52:11.760Z,49.20
2023-04-12T19:54:39.582Z,49.36
2023-04-12T19:57:08.155Z,49.48
2023-04-12T19:59:36.919Z,49.90
2023-04-12T20:02:04.337Z,50.38
2023-04-12T20:04:33.713Z,50.59
2023-04-12T20:07:01.550Z,50.22
2023-04-12T20:09:29.599Z,50.56
2023-04-12T20:11:57.575Z,50.70
2023-04-12T20:14:26.941Z,50.64
2023-04-12T20:16:56.780Z,50.50
2023-04-12T20:19:26.399Z,50.97
2023-04-12T20:22:01.767Z,51.08
2023-04-12T20:24:34.465Z,50.40
2023-04-12T20:27:03.840Z,50.24
2023-04-12T20:29:33.414Z,50.12
2023-04-12T20:32:02.297Z,50.27
2023-04-12T20:34:29.723Z,50.06
2023-04-12T20:36:57.974Z,50.36
2023-04-12T20:39:25.550Z,50.33
2023-04-12T20:41:54.955Z,50.51
2023-04-12T20:44:23.292Z,50.44
2023-04-12T20:46:51.409Z,51.55
2023-04-12T20:49:19.994Z,53.40
2023-04-12T20:51:47.386Z,56.14
2023-04-12T20:54:14.692Z,54.95
2023-04-12T20:56:42.916Z,54.98
2023-04-12T20:59:10.554Z,55.70
2023-04-12T21:01:37.981Z,56.32
2023-04-12T21:04:06.654Z,55.96
2023-04-12T21:06:34.581Z,55.26
2023-04-12T21:09:06.085Z,55.02
2023-04-12T21:11:33.828Z,54.84
2023-04-12T21:14:01.417Z,57.45
2023-04-12T21:16:29.481Z,60.50
2023-04-12T21:18:58.409Z,65.04
2023-04-12T21:21:27.448Z,63.63
2023-04-12T21:23:55.771Z,65.00
2023-04-12T21:26:24.402Z,72.31
2023-04-12T21:28:52.651Z,76.48
2023-04-12T21:31:20.454Z,85.23
2023-04-12T21:33:50.252Z,85.88
2023-04-12T21:36:18.895Z,90.05
2023-04-12T21:38:47.725Z,93.07
2023-04-12T21:41:16.190Z,96.93
2023-04-12T21:43:45.123Z,92.95
2023-04-12T21:46:13.584Z,97.99
2023-04-12T21:48:41.229Z,98.90
2023-04-12T21:51:08.973Z,100.00
2023-04-12T21:53:36.428Z,99.73
2023-04-12T21:56:04.877Z,99.71
2023-04-12T21:58:34.132Z,100.00
2023-04-12T22:01:01.922Z,100.00
2023-04-12T22:03:29.932Z,100.00
2023-04-12T22:06:04.079Z,100.00
2023-04-12T22:08:34.284Z,100.00
2023-04-12T22:11:02.062Z,100.00
2023-04-12T22:13:31.036Z,100.00
2023-04-12T22:16:00.735Z,100.00
2023-04-12T22:18:28.583Z,100.00
2023-04-12T22:20:57.190Z,100.00
2023-04-12T22:23:25.339Z,100.00
2023-04-12T22:25:58.327Z,100.00
2023-04-12T22:28:26.049Z,100.00
2023-04-12T22:30:53.484Z,100.00
2023-04-12T22:33:20.820Z,100.00
2023-04-12T22:35:48.139Z,100.00
2023-04-12T22:38:16.320Z,100.00
2023-04-12T22:40:44.001Z,100.00
2023-04-12T22:43:18.145Z,100.00
2023-04-12T22:45:46.328Z,100.00
2023-04-12T22:48:17.263Z,100.00
2023-04-12T22:50:46.357Z,100.00
2023-04-12T22:53:14.117Z,100.00
2023-04-12T22:55:42.338Z,100.00
2023-04-12T22:58:09.627Z,100.00
2023-04-12T23:00:37.600Z,100.00
2023-04-12T23:03:10.964Z,100.00
2023-04-12T23:05:39.015Z,100.00
2023-04-12T23:08:06.306Z,100.00
2023-04-12T23:10:34.303Z,100.00
2023-04-12T23:13:01.547Z,100.00
2023-04-12T23:15:30.547Z,100.00
2023-04-12T23:17:57.878Z,100.00
2023-04-12T23:20:25.848Z,100.00
2023-04-12T23:22:57.873Z,100.00
2023-04-12T23:25:50.008Z,100.00
2023-04-12T23:28:19.438Z,100.00
2023-04-12T23:30:48.704Z,100.00
2023-04-12T23:33:18.269Z,100.00
2023-04-12T23:35:46.781Z,100.00
2023-04-12T23:38:24.473Z,100.00
2023-04-12T23:40:54.308Z,100.00
2023-04-12T23:43:23.231Z,100.00
2023-04-12T23:45:51.940Z,100.00
2023-04-12T23:48:19.359Z,100.00
2023-04-12T23:50:48.177Z,100.00
2023-04-12T23:53:16.281Z,100.00
2023-04-12T23:55:44.981Z,100.00
2023-04-12T23:58:12.538Z,100.00
